sensor_id;sensor_type;location;lat;lon;timestamp;pressure;altitude;pressure_sealevel;temperature;humidity
71504;BME280;59323;50.874;7.028;2024-01-30T00:01:25;102389.44;;;6.64;100.00
71504;BME280;59323;50.874;7.028;2024-01-30T00:03:50;102393.22;;;6.63;100.00
71504;BME280;59323;50.874;7.028;2024-01-30T00:06:18;102389.03;;;6.57;100.00
71504;BME280;59323;50.874;7.028;2024-01-30T00:08:46;102392.81;;;6.56;100.00
71504;BME280;59323;50.874;7.028;2024-01-30T00:11:14;102393.13;;;6.54;100.00
71504;BME280;59323;50.874;7.028;2024-01-30T00:13:39;102378.50;;;6.55;100.00
71504;BME280;59323;50.874;7.028;2024-01-30T00:16:05;102378.81;;;6.54;100.00
71504;BME280;59323;50.874;7.028;2024-01-30T00:18:30;102379.91;;;6.53;100.00
71504;BME280;59323;50.874;7.028;2024-01-30T00:20:56;102371.56;;;6.49;100.00
71504;BME280;59323;50.874;7.028;2024-01-30T00:23:21;102375.81;;;6.55;100.00
71504;BME280;59323;50.874;7.028;2024-01-30T00:25:47;102372.91;;;6.52;100.00
71504;BME280;59323;50.874;7.028;2024-01-30T00:28:12;102365.91;;;6.51;100.00
71504;BME280;59323;50.874;7.028;2024-01-30T00:30:40;102366.97;;;6.50;100.00
71504;BME280;59323;50.874;7.028;2024-01-30T00:33:08;102365.38;;;6.49;100.00
71504;BME280;59323;50.874;7.028;2024-01-30T00:35:36;102367.06;;;6.45;100.00
71504;BME280;59323;50.874;7.028;2024-01-30T00:38:01;102368.88;;;6.49;100.00
71504;BME280;59323;50.874;7.028;2024-01-30T00:40:27;102365.16;;;6.45;100.00
71504;BME280;59323;50.874;7.028;2024-01-30T00:42:52;102365.44;;;6.44;100.00
71504;BME280;59323;50.874;7.028;2024-01-30T00:45:18;102365.44;;;6.44;100.00
71504;BME280;59323;50.874;7.028;2024-01-30T00:47:43;102358.25;;;6.39;100.00
71504;BME280;59323;50.874;7.028;2024-01-30T00:50:09;102365.44;;;6.44;100.00
71504;BME280;59323;50.874;7.028;2024-01-30T00:52:34;102358.25;;;6.39;100.00
71504;BME280;59323;50.874;7.028;2024-01-30T00:55:00;102360.94;;;6.39;100.00
71504;BME280;59323;50.874;7.028;2024-01-30T00:57:26;102356.94;;;6.36;100.00
71504;BME280;59323;50.874;7.028;2024-01-30T00:59:52;102359.41;;;6.33;100.00
71504;BME280;59323;50.874;7.028;2024-01-30T01:02:17;102355.41;;;6.30;100.00
71504;BME280;59323;50.874;7.028;2024-01-30T01:04:43;102358.31;;;6.34;100.00
71504;BME280;59323;50.874;7.028;2024-01-30T01:07:12;102351.41;;;6.28;100.00
71504;BME280;59323;50.874;7.028;2024-01-30T01:09:37;102359.63;;;6.36;100.00
71504;BME280;59323;50.874;7.028;2024-01-30T01:12:03;102354.75;;;6.39;100.00
71504;BME280;59323;50.874;7.028;2024-01-30T01:14:29;102357.72;;;6.37;100.00
71504;BME280;59323;50.874;7.028;2024-01-30T01:16:54;102355.84;;;6.38;100.00
71504;BME280;59323;50.874;7.028;2024-01-30T01:19:20;102356.44;;;6.34;100.00
71504;BME280;59323;50.874;7.028;2024-01-30T01:21:45;102355.03;;;6.37;100.00
71504;BME280;59323;50.874;7.028;2024-01-30T01:24:13;102352.13;;;6.33;100.00
71504;BME280;59323;50.874;7.028;2024-01-30T01:26:39;102355.13;;;6.32;100.00
71504;BME280;59323;50.874;7.028;2024-01-30T01:29:04;102353.44;;;6.36;100.00
71504;BME280;59323;50.874;7.028;2024-01-30T01:31:36;102351.81;;;6.35;100.00
71504;BME280;59323;50.874;7.028;2024-01-30T01:34:05;102355.53;;;6.39;100.00
71504;BME280;59323;50.874;7.028;2024-01-30T01:36:30;102352.84;;;6.39;100.00
71504;BME280;59323;50.874;7.028;2024-01-30T01:38:56;102351.75;;;6.40;100.00
71504;BME280;59323;50.874;7.028;2024-01-30T01:41:23;102348.75;;;6.42;100.00
71504;BME280;59323;50.874;7.028;2024-01-30T01:43:49;102351.16;;;6.43;100.00
71504;BME280;59323;50.874;7.028;2024-01-30T01:46:16;102353.84;;;6.43;100.00
71504;BME280;59323;50.874;7.028;2024-01-30T01:48:44;102354.66;;;6.44;100.00
71504;BME280;59323;50.874;7.028;2024-01-30T01:51:12;102347.34;;;6.44;100.00
71504;BME280;59323;50.874;7.028;2024-01-30T01:53:41;102355.75;;;6.43;100.00
71504;BME280;59323;50.874;7.028;2024-01-30T01:56:06;102356.75;;;6.47;100.00
71504;BME280;59323;50.874;7.028;2024-01-30T01:58:35;102357.34;;;6.44;100.00
71504;BME280;59323;50.874;7.028;2024-01-30T02:01:02;102349.47;;;6.47;100.00
71504;BME280;59323;50.874;7.028;2024-01-30T02:03:28;102354.06;;;6.47;100.00
71504;BME280;59323;50.874;7.028;2024-01-30T02:05:55;102355.16;;;6.46;100.00
71504;BME280;59323;50.874;7.028;2024-01-30T02:08:24;102350.25;;;6.48;100.00
71504;BME280;59323;50.874;7.028;2024-01-30T02:10:51;102345.16;;;6.46;100.00
71504;BME280;59323;50.874;7.028;2024-01-30T02:13:21;102336.56;;;6.44;100.00
71504;BME280;59323;50.874;7.028;2024-01-30T02:15:52;102338.66;;;6.47;100.00
71504;BME280;59323;50.874;7.028;2024-01-30T02:18:19;102332.47;;;6.47;100.00
71504;BME280;59323;50.874;7.028;2024-01-30T02:20:47;102331.84;;;6.50;100.00
71504;BME280;59323;50.874;7.028;2024-01-30T02:23:12;102334.34;;;6.46;100.00
71504;BME280;59323;50.874;7.028;2024-01-30T02:25:40;102335.00;;;6.57;100.00
71504;BME280;59323;50.874;7.028;2024-01-30T02:28:10;102327.50;;;6.54;100.00
71504;BME280;59323;50.874;7.028;2024-01-30T02:30:36;102332.59;;;6.55;100.00
71504;BME280;59323;50.874;7.028;2024-01-30T02:33:03;102338.00;;;6.55;100.00
71504;BME280;59323;50.874;7.028;2024-01-30T02:35:28;102327.50;;;6.54;100.00
71504;BME280;59323;50.874;7.028;2024-01-30T02:37:53;102330.69;;;6.56;100.00
71504;BME280;59323;50.874;7.028;2024-01-30T02:40:19;102333.50;;;6.51;100.00
71504;BME280;59323;50.874;7.028;2024-01-30T02:42:47;102323.75;;;6.50;100.00
71504;BME280;59323;50.874;7.028;2024-01-30T02:45:12;102327.56;;;6.49;100.00
71504;BME280;59323;50.874;7.028;2024-01-30T02:47:39;102330.69;;;6.56;100.00
71504;BME280;59323;50.874;7.028;2024-01-30T02:50:04;102315.38;;;6.51;100.00
71504;BME280;59323;50.874;7.028;2024-01-30T02:52:30;102313.69;;;6.55;100.00
71504;BME280;59323;50.874;7.028;2024-01-30T02:54:55;102306.09;;;6.57;100.00
71504;BME280;59323;50.874;7.028;2024-01-30T02:57:21;102316.09;;;6.57;100.00
71504;BME280;59323;50.874;7.028;2024-01-30T02:59:46;102317.69;;;6.58;100.00
71504;BME280;59323;50.874;7.028;2024-01-30T03:02:11;102311.28;;;6.54;100.00
71504;BME280;59323;50.874;7.028;2024-01-30T03:04:37;102316.09;;;6.57;100.00
71504;BME280;59323;50.874;7.028;2024-01-30T03:07:02;102317.28;;;6.51;100.00
71504;BME280;59323;50.874;7.028;2024-01-30T03:09:28;102302.44;;;6.48;100.00
71504;BME280;59323;50.874;7.028;2024-01-30T03:11:54;102314.84;;;6.49;100.00
71504;BME280;59323;50.874;7.028;2024-01-30T03:14:19;102320.69;;;6.56;100.00
71504;BME280;59323;50.874;7.028;2024-01-30T03:16:44;102303.78;;;6.51;100.00
71504;BME280;59323;50.874;7.028;2024-01-30T03:19:10;102312.97;;;6.50;100.00
71504;BME280;59323;50.874;7.028;2024-01-30T03:21:35;102304.84;;;6.50;100.00
71504;BME280;59323;50.874;7.028;2024-01-30T03:24:00;102309.47;;;6.49;100.00
71504;BME280;59323;50.874;7.028;2024-01-30T03:26:26;102314.06;;;6.49;100.00
71504;BME280;59323;50.874;7.028;2024-01-30T03:28:52;102314.06;;;6.49;100.00
71504;BME280;59323;50.874;7.028;2024-01-30T03:31:17;102301.88;;;6.51;100.00
71504;BME280;59323;50.874;7.028;2024-01-30T03:33:42;102298.66;;;6.49;100.00
71504;BME280;59323;50.874;7.028;2024-01-30T03:36:10;102295.75;;;6.46;100.00
71504;BME280;59323;50.874;7.028;2024-01-30T03:38:36;102288.25;;;6.43;100.00
71504;BME280;59323;50.874;7.028;2024-01-30T03:41:01;102297.75;;;6.40;100.00
71504;BME280;59323;50.874;7.028;2024-01-30T03:43:26;102292.84;;;6.42;100.00
71504;BME280;59323;50.874;7.028;2024-01-30T03:45:52;102293.44;;;6.39;100.00
71504;BME280;59323;50.874;7.028;2024-01-30T03:48:18;102295.63;;;6.37;100.00
71504;BME280;59323;50.874;7.028;2024-01-30T03:50:43;102291.94;;;6.33;100.00
71504;BME280;59323;50.874;7.028;2024-01-30T03:53:08;102294.34;;;6.34;100.00
71504;BME280;59323;50.874;7.028;2024-01-30T03:55:36;102289.22;;;6.33;100.00
71504;BME280;59323;50.874;7.028;2024-01-30T03:58:04;102287.34;;;6.33;100.00
71504;BME280;59323;50.874;7.028;2024-01-30T04:00:29;102295.34;;;6.39;100.00
71504;BME280;59323;50.874;7.028;2024-01-30T04:02:57;102289.53;;;6.31;100.00
71504;BME280;59323;50.874;7.028;2024-01-30T04:05:22;102291.03;;;6.38;100.00
71504;BME280;59323;50.874;7.028;2024-01-30T04:07:47;102299.63;;;6.40;100.00
71504;BME280;59323;50.874;7.028;2024-01-30T04:10:16;102291.34;;;6.36;100.00
71504;BME280;59323;50.874;7.028;2024-01-30T04:12:41;102291.63;;;6.34;100.00
71504;BME280;59323;50.874;7.028;2024-01-30T04:15:09;102283.75;;;6.38;100.00
71504;BME280;59323;50.874;7.028;2024-01-30T04:17:34;102282.63;;;6.39;100.00
71504;BME280;59323;50.874;7.028;2024-01-30T04:20:02;102277.84;;;6.36;100.00
71504;BME280;59323;50.874;7.028;2024-01-30T04:22:28;102279.75;;;6.35;100.00
71504;BME280;59323;50.874;7.028;2024-01-30T04:24:53;102281.03;;;6.38;100.00
71504;BME280;59323;50.874;7.028;2024-01-30T04:27:18;102278.44;;;6.33;100.00
71504;BME280;59323;50.874;7.028;2024-01-30T04:29:44;102277.63;;;6.32;100.00
71504;BME280;59323;50.874;7.028;2024-01-30T04:32:09;102287.34;;;6.33;100.00
71504;BME280;59323;50.874;7.028;2024-01-30T04:34:36;102273.84;;;6.33;100.00
71504;BME280;59323;50.874;7.028;2024-01-30T04:37:02;102274.44;;;6.30;100.00
71504;BME280;59323;50.874;7.028;2024-01-30T04:39:33;102285.22;;;6.30;100.00
71504;BME280;59323;50.874;7.028;2024-01-30T04:41:58;102273.94;;;6.28;100.00
71504;BME280;59323;50.874;7.028;2024-01-30T04:44:24;102270.22;;;6.24;100.00
71504;BME280;59323;50.874;7.028;2024-01-30T04:46:50;102275.81;;;6.28;100.00
71504;BME280;59323;50.874;7.028;2024-01-30T04:49:15;102280.13;;;6.29;100.00
71504;BME280;59323;50.874;7.028;2024-01-30T04:51:43;102278.63;;;6.23;100.00
71504;BME280;59323;50.874;7.028;2024-01-30T04:54:10;102275.13;;;6.22;100.00
71504;BME280;59323;50.874;7.028;2024-01-30T04:56:36;102274.31;;;6.22;100.00
71504;BME280;59323;50.874;7.028;2024-01-30T04:59:02;102276.00;;;6.18;100.00
71504;BME280;59323;50.874;7.028;2024-01-30T05:01:27;102283.59;;;6.16;100.00
71504;BME280;59323;50.874;7.028;2024-01-30T05:03:53;102282.88;;;6.10;100.00
71504;BME280;59323;50.874;7.028;2024-01-30T05:06:25;102289.88;;;6.11;100.00
71504;BME280;59323;50.874;7.028;2024-01-30T05:08:51;102286.47;;;6.06;100.00
71504;BME280;59323;50.874;7.028;2024-01-30T05:11:21;102287.34;;;6.01;100.00
71504;BME280;59323;50.874;7.028;2024-01-30T05:13:46;102289.84;;;5.97;100.00
71504;BME280;59323;50.874;7.028;2024-01-30T05:16:12;102287.22;;;5.92;100.00
71504;BME280;59323;50.874;7.028;2024-01-30T05:18:40;102288.81;;;5.93;100.00
71504;BME280;59323;50.874;7.028;2024-01-30T05:21:08;102290.22;;;5.91;100.00
71504;BME280;59323;50.874;7.028;2024-01-30T05:23:33;102278.88;;;5.89;100.00
71504;BME280;59323;50.874;7.028;2024-01-30T05:25:59;102285.94;;;5.85;100.00
71504;BME280;59323;50.874;7.028;2024-01-30T05:28:26;102271.66;;;5.84;100.00
71504;BME280;59323;50.874;7.028;2024-01-30T05:30:54;102286.47;;;5.87;100.00
71504;BME280;59323;50.874;7.028;2024-01-30T05:33:19;102282.72;;;5.83;100.00
71504;BME280;59323;50.874;7.028;2024-01-30T05:35:45;102285.44;;;5.83;100.00
71504;BME280;59323;50.874;7.028;2024-01-30T05:38:11;102279.53;;;5.81;100.00
71504;BME280;59323;50.874;7.028;2024-01-30T05:40:39;102276.63;;;5.77;100.00
71504;BME280;59323;50.874;7.028;2024-01-30T05:43:04;102271.00;;;5.73;100.00
71504;BME280;59323;50.874;7.028;2024-01-30T05:45:30;102277.72;;;5.76;100.00
71504;BME280;59323;50.874;7.028;2024-01-30T05:47:55;102280.63;;;5.80;100.00
71504;BME280;59323;50.874;7.028;2024-01-30T05:50:23;102280.13;;;5.78;100.00
71504;BME280;59323;50.874;7.028;2024-01-30T05:52:48;102272.53;;;5.80;100.00
71504;BME280;59323;50.874;7.028;2024-01-30T05:55:16;102270.94;;;5.79;100.00
71504;BME280;59323;50.874;7.028;2024-01-30T05:57:44;102283.53;;;5.83;100.00
71504;BME280;59323;50.874;7.028;2024-01-30T06:00:09;102276.84;;;5.81;100.00
71504;BME280;59323;50.874;7.028;2024-01-30T06:02:35;102273.03;;;5.82;100.00
71504;BME280;59323;50.874;7.028;2024-01-30T06:05:00;102274.63;;;5.83;100.00
71504;BME280;59323;50.874;7.028;2024-01-30T06:07:25;102283.78;;;5.87;100.00
71504;BME280;59323;50.874;7.028;2024-01-30T06:09:51;102284.34;;;5.84;100.00
71504;BME280;59323;50.874;7.028;2024-01-30T06:12:19;102275.16;;;5.85;100.00
71504;BME280;59323;50.874;7.028;2024-01-30T06:14:44;102274.34;;;5.84;100.00
71504;BME280;59323;50.874;7.028;2024-01-30T06:17:12;102282.34;;;5.94;100.00
71504;BME280;59323;50.874;7.028;2024-01-30T06:19:40;102280.72;;;5.93;100.00
71504;BME280;59323;50.874;7.028;2024-01-30T06:22:05;102276.94;;;5.94;100.00
71504;BME280;59323;50.874;7.028;2024-01-30T06:24:31;102277.03;;;5.89;100.00
71504;BME280;59323;50.874;7.028;2024-01-30T06:26:56;102275.38;;;5.88;100.00
71504;BME280;59323;50.874;7.028;2024-01-30T06:29:22;102265.41;;;5.89;100.00
71504;BME280;59323;50.874;7.028;2024-01-30T06:31:47;102260.53;;;5.91;100.00
71504;BME280;59323;50.874;7.028;2024-01-30T06:34:15;102268.69;;;5.86;100.00
71504;BME280;59323;50.874;7.028;2024-01-30T06:36:43;102267.28;;;5.88;100.00
71504;BME280;59323;50.874;7.028;2024-01-30T06:39:08;102259.50;;;5.87;100.00
71504;BME280;59323;50.874;7.028;2024-01-30T06:41:34;102271.66;;;5.84;100.00
71504;BME280;59323;50.874;7.028;2024-01-30T06:44:01;102267.88;;;5.85;100.00
71504;BME280;59323;50.874;7.028;2024-01-30T06:46:26;102259.25;;;5.83;100.00
71504;BME280;59323;50.874;7.028;2024-01-30T06:48:52;102257.66;;;5.82;100.00
71504;BME280;59323;50.874;7.028;2024-01-30T06:51:20;102253.06;;;5.83;100.00
71504;BME280;59323;50.874;7.028;2024-01-30T06:53:45;102255.72;;;5.88;100.00
71504;BME280;59323;50.874;7.028;2024-01-30T06:56:13;102255.44;;;5.89;100.00
71504;BME280;59323;50.874;7.028;2024-01-30T06:58:39;102255.44;;;5.89;100.00
71504;BME280;59323;50.874;7.028;2024-01-30T07:01:04;102255.16;;;5.91;100.00
71504;BME280;59323;50.874;7.028;2024-01-30T07:03:29;102268.63;;;5.91;100.00
71504;BME280;59323;50.874;7.028;2024-01-30T07:05:55;102274.53;;;5.93;100.00
71504;BME280;59323;50.874;7.028;2024-01-30T07:08:22;102272.13;;;5.91;100.00
71504;BME280;59323;50.874;7.028;2024-01-30T07:10:48;102271.75;;;5.98;100.00
71504;BME280;59323;50.874;7.028;2024-01-30T07:13:17;102274.75;;;5.96;100.00
71504;BME280;59323;50.874;7.028;2024-01-30T07:15:43;102277.75;;;5.95;100.00
71504;BME280;59323;50.874;7.028;2024-01-30T07:18:08;102268.56;;;5.96;100.00
71504;BME280;59323;50.874;7.028;2024-01-30T07:20:35;102269.94;;;5.93;100.00
71504;BME280;59323;50.874;7.028;2024-01-30T07:23:00;102275.84;;;5.95;100.00
71504;BME280;59323;50.874;7.028;2024-01-30T07:25:26;102266.44;;;5.93;100.00
71504;BME280;59323;50.874;7.028;2024-01-30T07:27:57;102276.13;;;5.94;100.00
71504;BME280;59323;50.874;7.028;2024-01-30T07:30:23;102275.53;;;5.97;100.00
71504;BME280;59323;50.874;7.028;2024-01-30T07:32:50;102285.16;;;6.03;100.00
71504;BME280;59323;50.874;7.028;2024-01-30T07:35:25;102292.66;;;6.06;100.00
71504;BME280;59323;50.874;7.028;2024-01-30T07:37:50;102285.75;;;6.00;100.00
71504;BME280;59323;50.874;7.028;2024-01-30T07:40:18;102289.03;;;5.97;100.00
71504;BME280;59323;50.874;7.028;2024-01-30T07:42:47;102281.97;;;6.01;100.00
71504;BME280;59323;50.874;7.028;2024-01-30T07:45:13;102286.75;;;6.04;100.00
71504;BME280;59323;50.874;7.028;2024-01-30T07:47:41;102294.84;;;6.04;100.00
71504;BME280;59323;50.874;7.028;2024-01-30T07:50:07;102295.16;;;6.02;100.00
71504;BME280;59323;50.874;7.028;2024-01-30T07:55:07;102298.16;;;6.01;100.00
71504;BME280;59323;50.874;7.028;2024-01-30T07:57:33;102290.56;;;6.03;100.00
71504;BME280;59323;50.874;7.028;2024-01-30T08:00:07;102296.97;;;6.07;100.00
71504;BME280;59323;50.874;7.028;2024-01-30T08:13:48;102316.91;;;6.25;100.00
71504;BME280;59323;50.874;7.028;2024-01-30T08:16:36;102319.59;;;6.25;100.00
71504;BME280;59323;50.874;7.028;2024-01-30T08:19:53;102296.19;;;6.20;100.00
71504;BME280;59323;50.874;7.028;2024-01-30T08:30:37;102289.22;;;6.33;100.00
71504;BME280;59323;50.874;7.028;2024-01-30T08:33:04;102294.84;;;6.36;100.00
71504;BME280;59323;50.874;7.028;2024-01-30T08:35:30;102279.44;;;6.37;100.00
71504;BME280;59323;50.874;7.028;2024-01-30T08:37:58;102274.25;;;6.41;100.00
71504;BME280;59323;50.874;7.028;2024-01-30T08:40:24;102285.53;;;6.43;100.00
71504;BME280;59323;50.874;7.028;2024-01-30T08:42:49;102287.06;;;6.49;100.00
71504;BME280;59323;50.874;7.028;2024-01-30T08:45:17;102297.34;;;6.47;100.00
71504;BME280;59323;50.874;7.028;2024-01-30T08:47:42;102295.69;;;6.51;100.00
71504;BME280;59323;50.874;7.028;2024-01-30T08:50:10;102291.88;;;6.52;100.00
71504;BME280;59323;50.874;7.028;2024-01-30T08:52:35;102304.19;;;6.58;100.00
71504;BME280;59323;50.874;7.028;2024-01-30T08:55:00;102310.91;;;6.60;100.00
71504;BME280;59323;50.874;7.028;2024-01-30T08:57:26;102314.91;;;6.63;100.00
71504;BME280;59323;50.874;7.028;2024-01-30T08:59:54;102320.22;;;6.68;100.00
71504;BME280;59323;50.874;7.028;2024-01-30T09:02:22;102315.50;;;6.74;100.00
71504;BME280;59323;50.874;7.028;2024-01-30T09:04:48;102318.63;;;6.81;100.00
71504;BME280;59323;50.874;7.028;2024-01-30T09:07:15;102305.81;;;6.86;100.00
71504;BME280;59323;50.874;7.028;2024-01-30T09:09:41;102312.91;;;6.96;100.00
71504;BME280;59323;50.874;7.028;2024-01-30T09:12:07;102316.63;;;7.00;100.00
71504;BME280;59323;50.874;7.028;2024-01-30T09:14:35;102319.22;;;7.05;100.00
71504;BME280;59323;50.874;7.028;2024-01-30T09:17:00;102327.22;;;7.10;100.00
71504;BME280;59323;50.874;7.028;2024-01-30T09:19:26;102323.03;;;7.18;100.00
71504;BME280;59323;50.874;7.028;2024-01-30T09:21:51;102329.94;;;7.24;100.00
71504;BME280;59323;50.874;7.028;2024-01-30T09:24:17;102323.81;;;7.32;100.00
71504;BME280;59323;50.874;7.028;2024-01-30T09:26:42;102331.22;;;7.40;100.00
71504;BME280;59323;50.874;7.028;2024-01-30T09:29:07;102341.44;;;7.43;100.00
71504;BME280;59323;50.874;7.028;2024-01-30T09:31:35;102345.94;;;7.48;100.00
71504;BME280;59323;50.874;7.028;2024-01-30T09:34:00;102345.69;;;7.58;100.00
71504;BME280;59323;50.874;7.028;2024-01-30T09:36:26;102346.78;;;7.71;100.00
71504;BME280;59323;50.874;7.028;2024-01-30T09:38:52;102353.59;;;7.82;100.00
71504;BME280;59323;50.874;7.028;2024-01-30T09:41:23;102360.38;;;7.93;100.00
71504;BME280;59323;50.874;7.028;2024-01-30T09:43:50;102361.22;;;8.02;100.00
71504;BME280;59323;50.874;7.028;2024-01-30T09:46:17;102366.22;;;8.09;100.00
71504;BME280;59323;50.874;7.028;2024-01-30T09:48:46;102361.03;;;8.21;100.00
71504;BME280;59323;50.874;7.028;2024-01-30T09:51:12;102365.91;;;8.33;100.00
71504;BME280;59323;50.874;7.028;2024-01-30T09:53:40;102364.78;;;8.47;100.00
71504;BME280;59323;50.874;7.028;2024-01-30T09:56:05;102372.19;;;8.64;100.00
71504;BME280;59323;50.874;7.028;2024-01-30T09:58:33;102369.22;;;8.74;100.00
71504;BME280;59323;50.874;7.028;2024-01-30T10:00:58;102376.47;;;8.87;100.00
71504;BME280;59323;50.874;7.028;2024-01-30T10:03:24;102371.25;;;9.00;100.00
71504;BME280;59323;50.874;7.028;2024-01-30T10:05:51;102363.13;;;9.00;100.00
71504;BME280;59323;50.874;7.028;2024-01-30T10:08:17;102375.41;;;9.06;100.00
71504;BME280;59323;50.874;7.028;2024-01-30T10:10:47;102369.69;;;9.07;100.00
71504;BME280;59323;50.874;7.028;2024-01-30T10:13:15;102372.41;;;9.07;100.00
71504;BME280;59323;50.874;7.028;2024-01-30T10:15:41;102377.00;;;9.07;100.00
71504;BME280;59323;50.874;7.028;2024-01-30T10:18:08;102380.72;;;9.11;100.00
71504;BME280;59323;50.874;7.028;2024-01-30T10:20:35;102382.00;;;9.13;100.00
71504;BME280;59323;50.874;7.028;2024-01-30T10:23:01;102382.34;;;9.12;100.00
71504;BME280;59323;50.874;7.028;2024-01-30T10:25:29;102385.53;;;9.14;100.00
71504;BME280;59323;50.874;7.028;2024-01-30T10:27:55;102376.44;;;9.18;100.00
71504;BME280;59323;50.874;7.028;2024-01-30T10:30:22;102377.72;;;9.21;100.00
71504;BME280;59323;50.874;7.028;2024-01-30T10:32:47;102374.38;;;9.24;100.00
71504;BME280;59323;50.874;7.028;2024-01-30T10:35:13;102368.16;;;9.24;100.00
71504;BME280;59323;50.874;7.028;2024-01-30T10:37:38;102371.19;;;9.22;100.00
71504;BME280;59323;50.874;7.028;2024-01-30T10:40:04;102363.72;;;9.28;100.00
71504;BME280;59323;50.874;7.028;2024-01-30T10:42:32;102374.56;;;9.28;100.00
71504;BME280;59323;50.874;7.028;2024-01-30T10:47:49;102368.50;;;9.31;100.00
71504;BME280;59323;50.874;7.028;2024-01-30T10:50:16;102369.16;;;9.36;100.00
71504;BME280;59323;50.874;7.028;2024-01-30T10:52:42;102366.13;;;9.38;100.00
71504;BME280;59323;50.874;7.028;2024-01-30T10:55:09;102360.69;;;9.38;100.00
71504;BME280;59323;50.874;7.028;2024-01-30T10:57:35;102360.88;;;9.41;100.00
71504;BME280;59323;50.874;7.028;2024-01-30T11:00:08;102359.59;;;9.39;100.00
71504;BME280;59323;50.874;7.028;2024-01-30T11:02:38;102353.53;;;9.42;100.00
71504;BME280;59323;50.874;7.028;2024-01-30T11:05:05;102363.75;;;9.45;100.00
71504;BME280;59323;50.874;7.028;2024-01-30T11:07:30;102358.66;;;9.52;100.00
71504;BME280;59323;50.874;7.028;2024-01-30T11:10:01;102354.97;;;9.57;100.00
71504;BME280;59323;50.874;7.028;2024-01-30T11:12:31;102355.78;;;9.57;100.00
71504;BME280;59323;50.874;7.028;2024-01-30T11:15:06;102352.44;;;9.60;100.00
71504;BME280;59323;50.874;7.028;2024-01-30T11:17:51;102350.53;;;9.69;100.00
71504;BME280;59323;50.874;7.028;2024-01-30T11:22:54;102357.22;;;9.72;100.00
71504;BME280;59323;50.874;7.028;2024-01-30T11:25:22;102351.16;;;9.75;100.00
71504;BME280;59323;50.874;7.028;2024-01-30T11:27:52;102350.41;;;9.83;100.00
71504;BME280;59323;50.874;7.028;2024-01-30T11:30:26;102352.47;;;9.86;100.00
71504;BME280;59323;50.874;7.028;2024-01-30T11:33:12;102350.72;;;9.90;100.00
71504;BME280;59323;50.874;7.028;2024-01-30T11:35:41;102356.47;;;9.97;100.00
71504;BME280;59323;50.874;7.028;2024-01-30T11:38:09;102351.19;;;10.01;100.00
71504;BME280;59323;50.874;7.028;2024-01-30T11:40:38;102343.84;;;10.01;100.00
71504;BME280;59323;50.874;7.028;2024-01-30T11:43:05;102347.03;;;10.03;100.00
71504;BME280;59323;50.874;7.028;2024-01-30T11:45:31;102345.28;;;10.07;100.00
71504;BME280;59323;50.874;7.028;2024-01-30T11:47:57;102348.94;;;10.11;100.00
71504;BME280;59323;50.874;7.028;2024-01-30T11:50:25;102338.56;;;10.13;100.00
71504;BME280;59323;50.874;7.028;2024-01-30T11:52:50;102339.03;;;10.15;100.00
71504;BME280;59323;50.874;7.028;2024-01-30T11:55:16;102324.50;;;10.20;100.00
71504;BME280;59323;50.874;7.028;2024-01-30T11:57:45;102338.41;;;10.27;100.00
71504;BME280;59323;50.874;7.028;2024-01-30T12:00:14;102328.81;;;10.30;100.00
71504;BME280;59323;50.874;7.028;2024-01-30T12:02:41;102330.88;;;10.33;100.00
71504;BME280;59323;50.874;7.028;2024-01-30T12:05:09;102336.63;;;10.40;100.00
71504;BME280;59323;50.874;7.028;2024-01-30T12:07:35;102344.94;;;10.43;100.00
71504;BME280;59323;50.874;7.028;2024-01-30T12:10:01;102337.91;;;10.42;100.00
71504;BME280;59323;50.874;7.028;2024-01-30T12:12:27;102346.84;;;10.52;100.00
71504;BME280;59323;50.874;7.028;2024-01-30T12:14:53;102341.41;;;10.52;100.00
71504;BME280;59323;50.874;7.028;2024-01-30T12:20:11;102348.13;;;10.54;100.00
71504;BME280;59323;50.874;7.028;2024-01-30T12:25:19;102350.03;;;10.54;100.00
71504;BME280;59323;50.874;7.028;2024-01-30T12:27:49;102358.81;;;10.59;100.00
71504;BME280;59323;50.874;7.028;2024-01-30T12:30:16;102354.19;;;10.60;100.00
71504;BME280;59323;50.874;7.028;2024-01-30T12:32:44;102350.34;;;10.61;100.00
71504;BME280;59323;50.874;7.028;2024-01-30T12:35:15;102351.94;;;10.62;100.00
71504;BME280;59323;50.874;7.028;2024-01-30T12:37:41;102350.34;;;10.61;100.00
71504;BME280;59323;50.874;7.028;2024-01-30T12:40:08;102352.41;;;10.64;100.00
71504;BME280;59323;50.874;7.028;2024-01-30T12:42:33;102355.13;;;10.64;100.00
71504;BME280;59323;50.874;7.028;2024-01-30T12:44:59;102359.44;;;10.65;100.00
71504;BME280;59323;50.874;7.028;2024-01-30T12:47:24;102364.53;;;10.66;100.00
71504;BME280;59323;50.874;7.028;2024-01-30T12:49:50;102355.91;;;10.64;100.00
71504;BME280;59323;50.874;7.028;2024-01-30T12:52:19;102362.00;;;10.61;100.00
71504;BME280;59323;50.874;7.028;2024-01-30T12:54:45;102362.00;;;10.61;100.00
71504;BME280;59323;50.874;7.028;2024-01-30T12:57:10;102365.03;;;10.60;100.00
71504;BME280;59323;50.874;7.028;2024-01-30T12:59:35;102362.66;;;10.58;100.00
71504;BME280;59323;50.874;7.028;2024-01-30T13:02:01;102364.72;;;10.61;100.00
71504;BME280;59323;50.874;7.028;2024-01-30T13:04:28;102366.31;;;10.62;100.00
71504;BME280;59323;50.874;7.028;2024-01-30T13:06:53;102367.78;;;10.60;100.00
71504;BME280;59323;50.874;7.028;2024-01-30T13:09:19;102364.41;;;10.63;100.00
71504;BME280;59323;50.874;7.028;2024-01-30T13:11:44;102378.63;;;10.68;100.00
71504;BME280;59323;50.874;7.028;2024-01-30T13:14:16;102374.44;;;10.71;100.00
71504;BME280;59323;50.874;7.028;2024-01-30T13:16:47;102373.19;;;10.68;100.00
71504;BME280;59323;50.874;7.028;2024-01-30T13:19:13;102370.13;;;10.70;100.00